Flight Track Log - Related Links

Times and Time Zones

All times are in EDT time to prevent confusion due to time zone crossing. See the EJA929 flight status page for this flight to view local times or setup timezone preferences in your user account.

Time Position Orientation Groundspeed Altitude Reporting Facility
EDT Latitude Longitude Course Direction KTS MPH feet Rate Location/Type
Mon 03:08:07 PM 42.3667 -70.9833 90° East 169 194 500  Level KA90
Mon 03:08:49 PM 42.3667 -70.9333 90° East 224 258 3,000 2,118 Climbing KA90
Mon 03:09:49 PM 42.3833 -70.8333 77° East 252 290 4,100 1,000 Climbing KA90
Mon 03:10:55 PM 42.3667 -70.7500 105° East 255 293 5,100 2,095 Climbing KA90
Mon 03:11:55 PM 42.3000 -70.7167 160° South 281 323 8,500 2,884 Climbing KA90
Mon 03:13:04 PM 42.2575 -70.8131 239° Southwest 249 287 11,300 2,262 Climbing Boston Center
Mon 03:14:05 PM 42.2358 -70.9175 254° West 282 325 13,400 1,361 Climbing Boston Center
Mon 03:15:03 PM 42.2128 -71.0553 257° West 333 383 14,000 915 Climbing Boston Center
Mon 03:16:03 PM 42.1911 -71.1792 257° West 380 437 15,200 1,884 Climbing Boston Center
Mon 03:17:04 PM 42.1678 -71.3308 258° West 380 437 17,800 2,311 Climbing Boston Center
Mon 03:18:05 PM 42.1503 -71.4656 260° West 374 430 19,900 1,109 Climbing Boston Center
Mon 03:19:03 PM 42.1222 -71.6031 255° West 374 430 20,000 807 Climbing Boston Center
Mon 03:20:04 PM 42.0983 -71.7544 258° West 395 455 21,500 1,488 Climbing Boston Center
Mon 03:21:04 PM 42.0592 -71.8725 246° West 400 460 23,000 1,587 Climbing Boston Center
Mon 03:22:05 PM 42.0014 -71.9986 238° Southwest 400 460 24,700 1,785 Climbing Boston Center
Mon 03:23:05 PM 41.9456 -72.1247 239° Southwest 400 460 26,600 1,678 Climbing Boston Center
Mon 03:24:03 PM 41.8897 -72.2506 239° Southwest 400 460 28,000 712 Climbing Boston Center
Mon 03:25:03 PM 41.8314 -72.3761 238° Southwest 400 460 28,000  Level Boston Center
Mon 03:26:03 PM 41.7689 -72.5125 238° Southwest 417 480 28,000  Level Boston Center
Mon 03:27:04 PM 41.7083 -72.6486 239° Southwest 428 493 28,000  Level Boston Center
Mon 03:28:05 PM 41.6475 -72.7817 239° Southwest 428 493 28,000  Level Boston Center
Mon 03:29:03 PM 41.5867 -72.9175 239° Southwest 423 487 28,000  Level Boston Center
Mon 03:30:04 PM 41.5275 -73.0500 239° Southwest 423 487 28,000  Level Boston Center
Mon 03:31:05 PM 41.4664 -73.1825 238° Southwest 423 487 28,000  Level Boston Center
Mon 03:32:06 PM 41.4050 -73.3203 239° Southwest 423 487 28,000  Level Boston Center
Mon 03:33:03 PM 41.3392 -73.4547 237° Southwest 429 494 28,000  Level Boston Center
Mon 03:34:04 PM 41.2775 -73.5892 239° Southwest 429 494 28,000  Level Boston Center
Mon 03:36:14 PM 41.1169 -73.8614 232° Southwest 428 493 28,000  Level New York Center
Mon 03:37:14 PM 41.0408 -73.9869 231° Southwest 434 499 28,000 -250 Level New York Center
Mon 03:38:14 PM 40.9708 -74.1075 232° Southwest 434 499 27,500 -750 Descending New York Center
Mon 03:39:14 PM 40.8942 -74.2297 230° Southwest 434 499 26,500 -750 Descending New York Center
Mon 03:40:14 PM 40.8197 -74.3550 232° Southwest 434 499 26,000 -250 Descending New York Center
Mon 03:41:14 PM 40.7431 -74.4742 230° Southwest 434 499 26,000  Level New York Center
Mon 03:42:14 PM 40.6683 -74.6014 232° Southwest 434 499 26,000 -650 Level New York Center
Mon 03:43:14 PM 40.5933 -74.7256 232° Southwest 434 499 24,700 -1,650 Descending New York Center
Mon 03:44:14 PM 40.5144 -74.8411 228° Southwest 434 499 22,700 -1,750 Descending New York Center
Mon 03:45:14 PM 40.4333 -74.9564 227° Southwest 434 499 21,200 -1,500 Descending New York Center
Mon 03:46:14 PM 40.3564 -75.0661 227° Southwest 429 494 19,700 -1,400 Descending New York Center
Mon 03:47:14 PM 40.2683 -75.1886 227° Southwest 429 494 18,400 -850 Descending New York Center
Mon 03:48:14 PM 40.1892 -75.2978 227° Southwest 429 494 18,000 -200 Descending New York Center
Mon 03:49:14 PM 40.1144 -75.3986 226° Southwest 434 499 18,000  Level New York Center
Mon 03:50:14 PM 40.0261 -75.5203 227° Southwest 429 494 18,000 -300 Level New York Center
Mon 03:51:14 PM 39.9489 -75.6258 226° Southwest 424 488 17,400 -800 Descending New York Center
Mon 03:52:14 PM 39.8817 -75.7403 233° Southwest 419 482 16,400 -1,200 Descending New York Center
Mon 03:53:14 PM 39.8225 -75.8578 237° Southwest 405 466 15,000 -1,356 Descending New York Center
Mon 03:55:11 PM 39.7000 -76.0833 235° Southwest 380 437 12,400 -1,119 Descending Potomac TRACON
Mon 03:56:11 PM 39.6500 -76.1833 237° Southwest 341 392 11,700 -1,450 Descending Potomac TRACON
Mon 03:57:11 PM 39.6000 -76.2833 237° Southwest 294 338 9,500 -2,250 Descending Potomac TRACON
Mon 03:58:11 PM 39.5333 -76.3333 210° Southwest 289 333 7,200 -2,035 Descending Potomac TRACON
Mon 03:59:06 PM 39.4833 -76.3833 218° Southwest 281 323 5,600 -1,617 Descending Potomac TRACON
Mon 04:00:06 PM 39.4167 -76.4500 218° Southwest 275 316 4,100 -1,190 Descending Potomac TRACON
Mon 04:01:12 PM 39.3333 -76.4500 180° South 270 311 3,100 -496 Descending Potomac TRACON
Mon 04:02:07 PM 39.2667 -76.4667 191° South 273 314 3,100 -496 Level Potomac TRACON
Mon 04:03:13 PM 39.1833 -76.4833 189° South 255 293 2,100 -496 Descending Potomac TRACON
Mon 04:04:08 PM 39.1167 -76.5000 191° South 261 300 2,100 -52 Level Potomac TRACON
Mon 04:05:08 PM 39.1000 -76.5500 247° West 191 220 2,000 -250 Descending Potomac TRACON
Mon 04:06:08 PM 39.1167 -76.6000 293° West 149 171 1,600 -645 Descending Potomac TRACON
Mon 04:07:09 PM 39.1500 -76.6333 322° Northwest 127 146 700 -885 Descending Potomac TRACON

Login

Don't have an account? Register now (free) for customized features, flight alerts, and more!